Time;durP1;ratioP1;P1;durP2;ratioP2;P2;SDS_P1;SDS_P2;PMS_P1;PMS_P2;Temp;Humidity;BMP_temperature;BMP_pressure;BME280_temperature;BME280_humidity;BME280_pressure;Samples;Min_cycle;Max_cycle;Signal;HPM_P1;HPM_P2
2022/01/26 00:06:36;;;;;;;33.13;23.75;;;;;;;-0.28;46.58;101469.38;4972531;28;20120;-71
2022/01/26 00:09:04;;;;;;;44.78;26.67;;;;;;;-0.79;48.24;101448.25;4972110;28;20053;-72
2022/01/26 00:11:33;;;;;;;38.60;24.85;;;;;;;-0.72;47.14;101452.13;4972131;28;20034;-71
2022/01/26 00:14:01;;;;;;;36.17;24.83;;;;;;;-0.45;46.90;101466.69;4972708;28;20138;-70
2022/01/26 00:16:41;;;;;;;46.72;26.15;;;;;;;-0.50;46.47;101468.09;4975166;28;20086;-70
2022/01/26 00:19:11;;;;;;;42.60;28.92;;;;;;;-0.63;46.25;101463.00;4972192;28;20018;-70
2022/01/26 00:21:43;;;;;;;39.20;27.17;;;;;;;-0.58;46.61;101479.63;4969152;28;20081;-70
2022/01/26 00:29:30;;;;;;;44.63;27.05;;;;;;;-0.57;48.15;101445.31;4963666;28;20041;-72
2022/01/26 00:43:49;;;;;;;42.75;28.35;;;;;;;-1.28;50.89;101474.34;4959373;28;20426;-71
2022/01/26 00:46:34;;;;;;;47.50;30.17;;;;;;;-1.40;50.18;101459.81;4972400;28;20117;-71
2022/01/26 00:48:59;;;;;;;50.38;28.52;;;;;;;-1.62;50.64;101471.25;4972369;28;20146;-72
2022/01/26 00:51:25;;;;;;;41.97;28.30;;;;;;;-1.71;51.00;101463.84;4973795;28;20459;-72
2022/01/26 00:54:05;;;;;;;44.17;30.15;;;;;;;-1.56;50.97;101460.50;4973389;28;20097;-71
2022/01/26 00:56:31;;;;;;;50.05;29.40;;;;;;;-1.84;51.88;101474.09;4972061;28;20035;-71
2022/01/26 00:58:57;;;;;;;49.10;29.48;;;;;;;-1.81;52.74;101460.53;4970498;28;20058;-71
2022/01/26 01:01:25;;;;;;;40.08;27.92;;;;;;;-1.79;53.03;101471.84;4975189;28;20081;-71
2022/01/26 01:04:01;;;;;;;49.30;29.70;;;;;;;-1.99;52.40;101448.25;4968896;28;20043;-71
2022/01/26 01:09:49;;;;;;;51.22;29.40;;;;;;;-1.41;50.56;101430.59;4971214;28;20451;-72
2022/01/26 01:12:15;;;;;;;51.40;31.58;;;;;;;-1.25;50.17;101447.03;4958819;28;20494;-72
2022/01/26 01:14:42;;;;;;;43.53;28.23;;;;;;;-1.55;50.25;101442.56;4963448;28;20039;-71
2022/01/26 01:17:11;;;;;;;46.22;28.85;;;;;;;-1.33;50.71;101460.31;4971590;28;20046;-71
2022/01/26 01:19:48;;;;;;;34.63;24.88;;;;;;;-1.37;49.91;101450.59;4980521;28;20073;-71
2022/01/26 01:28:28;;;;;;;38.55;26.15;;;;;;;-1.42;50.33;101445.94;4965233;28;20042;-71
2022/01/26 01:32:12;;;;;;;41.95;26.48;;;;;;;-1.41;49.92;101447.72;4960140;28;20464;-70
2022/01/26 01:34:18;;;;;;;39.75;25.48;;;;;;;-1.27;48.96;101427.22;4990158;28;20046;-70
2022/01/26 01:36:49;;;;;;;43.92;25.95;;;;;;;-1.32;49.45;101436.31;4972539;28;20022;-76
2022/01/26 01:39:15;;;;;;;38.78;24.60;;;;;;;-1.46;50.69;101444.84;4995268;28;20066;-71
2022/01/26 01:41:42;;;;;;;43.17;26.17;;;;;;;-1.54;50.17;101422.88;4970340;28;20487;-71
2022/01/26 01:44:09;;;;;;;39.15;27.75;;;;;;;-1.47;49.79;101417.34;4986865;28;20440;-70
2022/01/26 01:46:36;;;;;;;51.38;26.55;;;;;;;-1.26;50.71;101441.00;4955684;28;20474;-71
2022/01/26 01:49:04;;;;;;;35.78;24.73;;;;;;;-1.53;50.56;101428.13;4973051;28;20526;-76
2022/01/26 01:51:36;;;;;;;40.03;26.83;;;;;;;-1.49;51.61;101432.69;4950500;28;20027;-73
2022/01/26 01:54:03;;;;;;;41.75;26.88;;;;;;;-1.79;51.15;101425.53;4971292;28;20070;-71
2022/01/26 01:56:29;;;;;;;37.67;24.25;;;;;;;-1.44;51.75;101432.97;4971812;28;20046;-71
2022/01/26 01:58:58;;;;;;;37.40;25.10;;;;;;;-1.35;51.57;101431.00;4961594;28;20531;-71
2022/01/26 02:01:24;;;;;;;40.70;25.27;;;;;;;-1.52;51.51;101426.47;4963667;28;20031;-71
2022/01/26 02:03:51;;;;;;;41.45;24.52;;;;;;;-1.78;51.33;101409.28;4966169;28;20546;-71
2022/01/26 02:06:17;;;;;;;40.85;24.40;;;;;;;-1.51;51.66;101402.50;4971802;28;20097;-71
2022/01/26 02:08:43;;;;;;;44.13;24.92;;;;;;;-1.81;51.95;101412.56;4965541;28;20087;-71
2022/01/26 02:11:11;;;;;;;44.72;26.17;;;;;;;-1.50;51.55;101418.03;4952986;28;20126;-71
2022/01/26 02:13:54;;;;;;;39.50;25.85;;;;;;;-1.52;51.63;101404.19;4969132;28;20047;-70
2022/01/26 02:55:56;;;;;;;29.15;21.58;;;;;;;-1.34;52.02;101396.72;4973586;28;20065;-72
2022/01/26 03:03:51;;;;;;;36.40;23.30;;;;;;;-1.77;53.06;101414.53;4955640;28;20031;-70
2022/01/26 03:06:30;;;;;;;33.65;23.13;;;;;;;-1.67;52.84;101413.47;4957316;28;20030;-74
2022/01/26 03:09:01;;;;;;;32.88;21.80;;;;;;;-1.82;52.92;101404.75;4956215;28;20395;-72
2022/01/26 03:11:30;;;;;;;28.73;20.95;;;;;;;-1.61;52.67;101408.72;4964708;28;20043;-71
2022/01/26 03:14:13;;;;;;;37.70;22.73;;;;;;;-2.04;52.91;101387.88;4972150;28;20069;-71
2022/01/26 03:16:44;;;;;;;29.80;22.08;;;;;;;-1.56;52.73;101409.91;4973516;28;20430;-70
2022/01/26 03:19:47;;;;;;;35.10;21.33;;;;;;;-1.58;52.56;101406.34;4958020;28;20518;-70
2022/01/26 03:35:19;;;;;;;34.03;21.83;;;;;;;-1.66;53.90;101371.53;4972905;28;20046;-71
2022/01/26 03:38:20;;;;;;;32.50;21.13;;;;;;;-1.81;54.55;101414.25;4974320;28;20070;-70
2022/01/26 03:40:46;;;;;;;36.05;20.27;;;;;;;-1.49;54.60;101401.78;4981878;28;20050;-70
2022/01/26 03:46:46;;;;;;;34.75;20.70;;;;;;;-1.38;54.21;101404.16;4973678;28;20050;-70
2022/01/26 03:49:12;;;;;;;31.20;19.15;;;;;;;-1.76;55.61;101403.44;4969317;28;20058;-70
2022/01/26 03:51:40;;;;;;;29.55;19.33;;;;;;;-2.31;56.91;101399.81;4972652;28;20348;-70
2022/01/26 03:54:06;;;;;;;33.10;19.80;;;;;;;-1.96;57.29;101393.56;4979525;28;20104;-70
2022/01/26 03:56:47;;;;;;;32.40;20.05;;;;;;;-1.94;56.50;101376.56;4973097;28;20426;-69
2022/01/26 03:59:13;;;;;;;34.22;19.60;;;;;;;-2.01;56.45;101372.69;4974667;28;20125;-70
2022/01/26 04:01:39;;;;;;;31.38;19.98;;;;;;;-1.56;56.04;101391.00;4973683;28;20492;-70
2022/01/26 04:04:06;;;;;;;34.35;19.05;;;;;;;-2.03;56.10;101376.81;4991877;28;20046;-70
2022/01/26 04:07:12;;;;;;;38.28;20.88;;;;;;;-2.13;57.00;101395.91;4972642;28;20501;-70
2022/01/26 04:09:38;;;;;;;28.17;20.38;;;;;;;-2.01;57.27;101370.09;4969040;28;20054;-71
2022/01/26 04:12:04;;;;;;;26.92;19.25;;;;;;;-1.44;56.80;101376.34;4968137;28;20039;-71
2022/01/26 04:14:32;;;;;;;33.67;20.65;;;;;;;-1.76;56.21;101349.44;4973503;28;20137;-70
2022/01/26 04:16:58;;;;;;;34.55;18.80;;;;;;;-2.07;56.47;101356.84;4975441;28;20097;-71
2022/01/26 04:19:25;;;;;;;33.05;23.77;;;;;;;-1.95;56.67;101377.31;4971598;28;20078;-72
2022/01/26 04:22:17;;;;;;;34.83;20.73;;;;;;;-1.68;56.59;101382.50;4973089;28;20023;-71
2022/01/26 04:24:44;;;;;;;32.03;19.83;;;;;;;-1.58;56.34;101380.59;4954471;28;20047;-70
2022/01/26 04:27:23;;;;;;;27.85;17.23;;;;;;;-1.53;56.02;101365.47;4968542;28;20125;-70
2022/01/26 04:29:49;;;;;;;26.27;20.08;;;;;;;-1.68;56.70;101357.66;4952371;28;20522;-70
2022/01/26 04:32:16;;;;;;;26.08;17.50;;;;;;;-1.88;57.97;101369.22;4961435;28;20432;-71
2022/01/26 04:34:42;;;;;;;32.47;19.60;;;;;;;-1.76;57.83;101384.56;4961066;28;20051;-74
2022/01/26 04:39:52;;;;;;;33.83;20.23;;;;;;;-1.89;58.37;101387.16;4972771;28;20038;-72
2022/01/26 04:42:31;;;;;;;35.92;19.00;;;;;;;-1.85;57.89;101368.53;4970308;28;20051;-72
2022/01/26 04:45:02;;;;;;;30.38;20.35;;;;;;;-1.62;58.18;101388.91;4970478;28;20039;-71
2022/01/26 04:47:28;;;;;;;32.55;21.10;;;;;;;-1.73;58.66;101369.34;4970624;28;20050;-74
2022/01/26 04:49:54;;;;;;;34.17;19.23;;;;;;;-2.35;59.80;101373.00;4972316;28;20055;-72
2022/01/26 04:52:28;;;;;;;32.05;19.48;;;;;;;-2.13;60.19;101392.44;5005098;28;20054;-71
2022/01/26 05:01:36;;;;;;;32.42;21.40;;;;;;;-1.88;59.19;101387.22;4992250;28;20112;-72
2022/01/26 05:04:04;;;;;;;31.40;20.05;;;;;;;-1.72;59.33;101381.41;4978263;28;20038;-70
2022/01/26 05:06:30;;;;;;;24.88;18.17;;;;;;;-1.62;58.97;101354.59;4993602;28;20034;-70
2022/01/26 05:08:55;;;;;;;30.00;18.42;;;;;;;-1.79;59.08;101376.66;4988173;28;20030;-72
2022/01/26 05:11:34;;;;;;;34.33;20.90;;;;;;;-1.92;58.82;101380.09;4970806;28;20503;-72
2022/01/26 05:14:00;;;;;;;27.80;20.10;;;;;;;-2.19;58.73;101385.19;4970115;28;20050;-72
2022/01/26 05:16:27;;;;;;;34.10;17.63;;;;;;;-2.30;59.42;101381.00;4972861;28;20090;-72
2022/01/26 05:18:53;;;;;;;30.05;19.35;;;;;;;-2.14;59.11;101382.94;4971187;28;20042;-72
2022/01/26 05:21:20;;;;;;;39.25;21.17;;;;;;;-2.13;58.99;101382.16;4972690;28;20031;-72
2022/01/26 05:23:45;;;;;;;34.30;19.98;;;;;;;-2.14;59.47;101376.09;4971134;28;20090;-70
2022/01/26 05:26:12;;;;;;;31.83;21.08;;;;;;;-2.25;60.13;101377.06;4969395;28;20073;-71
2022/01/26 05:28:38;;;;;;;36.25;22.27;;;;;;;-2.15;59.59;101368.31;4974292;28;20045;-70
2022/01/26 05:31:19;;;;;;;31.55;20.85;;;;;;;-1.95;59.35;101365.34;4970924;28;20031;-70
2022/01/26 05:33:45;;;;;;;32.10;21.13;;;;;;;-1.99;59.38;101345.38;4970373;28;20027;-70
2022/01/26 05:36:10;;;;;;;31.17;21.73;;;;;;;-2.11;59.80;101390.84;4968015;28;20035;-71
2022/01/26 05:38:44;;;;;;;44.15;24.80;;;;;;;-2.06;59.59;101368.00;4954849;28;20035;-71
2022/01/26 05:41:38;;;;;;;32.58;19.90;;;;;;;-2.09;59.74;101402.13;4972574;28;20038;-71
2022/01/26 05:44:20;;;;;;;28.38;18.88;;;;;;;-2.26;60.26;101397.53;4960077;28;20549;-71
2022/01/26 05:46:48;;;;;;;41.00;20.65;;;;;;;-2.17;60.46;101359.59;4971881;28;20061;-70
2022/01/26 05:49:16;;;;;;;33.75;19.65;;;;;;;-1.97;60.39;101379.81;4973155;28;20039;-71
2022/01/26 05:51:45;;;;;;;37.10;22.15;;;;;;;-1.72;59.89;101378.84;4974295;28;20031;-70
2022/01/26 05:54:11;;;;;;;34.03;23.60;;;;;;;-1.86;59.51;101367.63;4953476;28;20077;-70
2022/01/26 05:56:37;;;;;;;47.58;21.05;;;;;;;-1.89;59.46;101366.56;4969540;28;20046;-69
2022/01/26 05:59:03;;;;;;;29.55;19.95;;;;;;;-1.66;58.52;101376.66;4977388;28;20398;-71
2022/01/26 06:01:28;;;;;;;32.97;21.50;;;;;;;-1.69;58.73;101358.44;4979462;28;20038;-71
2022/01/26 06:03:54;;;;;;;31.25;20.95;;;;;;;-1.74;58.22;101355.56;4980109;28;20023;-71
2022/01/26 06:06:20;;;;;;;35.13;22.80;;;;;;;-1.94;59.09;101377.44;4980018;28;20368;-70
2022/01/26 06:08:45;;;;;;;35.95;19.35;;;;;;;-2.01;59.34;101384.66;4967185;28;20043;-70
2022/01/26 06:11:11;;;;;;;32.90;19.88;;;;;;;-1.78;58.86;101381.00;4956895;28;20051;-70
2022/01/26 06:13:37;;;;;;;36.88;21.17;;;;;;;-2.25;59.25;101376.19;4976390;28;20427;-69
2022/01/26 06:16:02;;;;;;;36.67;21.33;;;;;;;-2.20;58.69;101370.56;4971838;28;20402;-71
2022/01/26 06:18:28;;;;;;;39.47;22.17;;;;;;;-2.29;59.02;101381.94;4975527;28;20113;-71
2022/01/26 06:20:55;;;;;;;35.53;21.02;;;;;;;-1.99;58.16;101380.47;4971313;28;20109;-70
2022/01/26 06:23:24;;;;;;;28.83;20.13;;;;;;;-2.07;57.98;101379.97;4966631;28;20039;-69
2022/01/26 06:25:51;;;;;;;29.98;19.73;;;;;;;-2.28;58.49;101387.16;4960923;28;20051;-70
2022/01/26 06:28:17;;;;;;;31.65;21.15;;;;;;;-2.26;58.35;101395.84;4955642;28;20047;-72
2022/01/26 06:30:45;;;;;;;39.63;21.45;;;;;;;-2.10;57.81;101407.19;4972174;28;20053;-69
2022/01/26 06:33:12;;;;;;;33.53;22.17;;;;;;;-2.36;58.39;101394.34;4975016;28;20042;-69
2022/01/26 06:35:38;;;;;;;35.40;22.65;;;;;;;-2.18;58.23;101391.22;4971931;28;20082;-70
2022/01/26 06:38:03;;;;;;;35.78;19.52;;;;;;;-2.26;58.63;101366.69;4971991;28;20062;-71
2022/01/26 06:40:29;;;;;;;38.15;21.73;;;;;;;-2.49;58.82;101367.72;4972047;28;20047;-70
2022/01/26 06:43:02;;;;;;;60.28;22.52;;;;;;;-2.12;58.58;101377.09;4979491;28;20065;-70
2022/01/26 06:51:23;;;;;;;32.25;20.02;;;;;;;-1.94;58.41;101358.56;4967847;28;20035;-69
2022/01/26 06:53:49;;;;;;;34.53;21.25;;;;;;;-1.86;58.09;101382.19;4971695;28;20070;-69
2022/01/26 06:56:14;;;;;;;34.45;20.23;;;;;;;-2.02;57.83;101373.44;4977810;28;20411;-70
2022/01/26 06:58:40;;;;;;;37.85;20.30;;;;;;;-2.09;58.12;101383.25;4987701;28;20398;-69
2022/01/26 07:01:05;;;;;;;32.45;19.98;;;;;;;-2.53;58.50;101379.44;4968878;28;20109;-69
2022/01/26 07:03:32;;;;;;;37.97;21.45;;;;;;;-2.44;58.19;101386.91;4969585;28;20031;-70
2022/01/26 07:05:58;;;;;;;30.30;20.63;;;;;;;-2.46;58.09;101358.56;4966814;28;20495;-70
2022/01/26 07:08:23;;;;;;;32.15;20.33;;;;;;;-2.31;58.36;101348.41;4970639;28;20054;-71
2022/01/26 07:10:51;;;;;;;34.42;18.83;;;;;;;-2.01;57.67;101371.81;4975467;28;20391;-70
2022/01/26 07:13:17;;;;;;;34.45;21.08;;;;;;;-2.46;58.26;101368.84;4972816;28;20034;-69
2022/01/26 07:21:27;;;;;;;26.60;19.52;;;;;;;-1.83;57.85;101365.25;4965816;28;20047;-71
2022/01/26 07:23:54;;;;;;;32.63;21.10;;;;;;;-1.65;57.51;101336.38;4968961;28;20043;-71
2022/01/26 07:26:20;;;;;;;48.63;22.27;;;;;;;-1.82;57.35;101366.19;4971446;28;20486;-71
2022/01/26 07:28:46;;;;;;;39.35;22.80;;;;;;;-1.89;57.08;101352.03;4968632;28;20051;-70
2022/01/26 07:31:12;;;;;;;31.60;20.75;;;;;;;-1.55;56.38;101349.03;4957457;28;20059;-71
2022/01/26 07:33:39;;;;;;;36.33;21.63;;;;;;;-1.34;55.71;101362.38;4960627;28;20033;-70
2022/01/26 07:36:05;;;;;;;47.55;24.05;;;;;;;-1.30;55.75;101339.50;4972116;28;20035;-70
2022/01/26 07:38:37;;;;;;;35.35;22.10;;;;;;;-0.90;55.26;101353.94;4970754;28;20157;-70
2022/01/26 07:41:08;;;;;;;41.50;20.35;;;;;;;-0.88;54.40;101349.78;4970627;28;20153;-70
2022/01/26 07:43:33;;;;;;;32.17;21.65;;;;;;;-1.05;54.37;101356.47;4973442;28;20498;-70
2022/01/26 07:45:59;;;;;;;37.10;20.60;;;;;;;-1.28;54.91;101367.91;4990566;28;20073;-71
2022/01/26 07:48:36;;;;;;;27.90;20.23;;;;;;;-1.41;54.85;101368.81;4978174;28;20372;-71
2022/01/26 07:51:26;;;;;;;30.60;21.17;;;;;;;-1.30;54.58;101366.94;4963920;28;20065;-69
2022/01/26 07:53:51;;;;;;;48.30;23.58;;;;;;;-1.26;54.26;101350.88;4973386;28;20047;-71
2022/01/26 07:56:17;;;;;;;32.72;20.17;;;;;;;-0.84;53.60;101344.03;4970397;28;20387;-71
2022/01/26 07:58:43;;;;;;;36.10;20.45;;;;;;;-0.98;54.05;101374.09;4998989;28;20399;-70
2022/01/26 08:01:09;;;;;;;29.23;21.58;;;;;;;-0.86;53.64;101351.66;4961936;28;20035;-69
2022/01/26 08:03:35;;;;;;;36.80;20.98;;;;;;;-0.93;53.35;101376.97;4966841;28;20069;-71
2022/01/26 08:06:02;;;;;;;31.88;23.13;;;;;;;-0.78;53.84;101371.84;4965618;28;20039;-71
2022/01/26 08:08:28;;;;;;;34.17;20.00;;;;;;;-0.46;53.44;101371.22;4971765;28;20054;-70
2022/01/26 08:11:01;;;;;;;34.85;21.98;;;;;;;-0.35;52.36;101371.84;4971950;28;20051;-70
2022/01/26 08:13:27;;;;;;;32.03;21.17;;;;;;;-0.70;53.15;101381.84;4973117;28;20043;-70
2022/01/26 08:15:56;;;;;;;39.70;23.15;;;;;;;-0.66;53.40;101363.19;5001709;28;20486;-70
2022/01/26 08:18:28;;;;;;;38.28;22.55;;;;;;;-0.58;52.39;101376.53;4972542;28;20081;-70
2022/01/26 08:20:54;;;;;;;54.97;24.08;;;;;;;-0.50;53.05;101382.13;4965677;28;20078;-70
2022/01/26 08:23:22;;;;;;;34.38;22.35;;;;;;;-0.36;52.69;101385.53;4972229;28;20043;-72
2022/01/26 08:25:50;;;;;;;35.17;24.17;;;;;;;-0.36;52.80;101377.81;4972101;28;20430;-72
2022/01/26 08:28:25;;;;;;;40.38;25.45;;;;;;;-0.26;52.89;101365.56;5001011;28;20486;-71
2022/01/26 08:30:51;;;;;;;34.67;25.05;;;;;;;-0.11;52.66;101386.19;4969248;28;20423;-71
2022/01/26 08:33:16;;;;;;;33.25;21.58;;;;;;;0.08;52.28;101377.84;4970769;28;20137;-70
2022/01/26 08:35:42;;;;;;;34.30;23.13;;;;;;;-0.18;52.23;101365.13;4976771;28;20138;-70
2022/01/26 08:38:08;;;;;;;36.17;21.75;;;;;;;-0.02;52.39;101365.22;4971023;28;20046;-71
2022/01/26 08:40:34;;;;;;;42.90;23.45;;;;;;;0.14;51.18;101377.28;4950815;28;20049;-71
2022/01/26 08:43:00;;;;;;;51.08;23.98;;;;;;;0.17;51.90;101380.94;4963133;28;20058;-70
2022/01/26 08:45:33;;;;;;;32.88;22.08;;;;;;;0.02;51.00;101358.53;4972988;28;20030;-71
2022/01/26 08:47:58;;;;;;;39.90;20.40;;;;;;;-0.38;51.94;101376.81;4983377;28;20133;-70
2022/01/26 08:50:24;;;;;;;32.10;22.30;;;;;;;-0.02;51.67;101383.28;4974133;28;20046;-71
2022/01/26 08:52:49;;;;;;;36.65;21.70;;;;;;;-0.20;51.70;101379.63;4969460;28;20039;-71
2022/01/26 08:55:15;;;;;;;34.63;21.83;;;;;;;-0.04;51.76;101365.13;4969538;28;20031;-71
2022/01/26 08:57:40;;;;;;;49.25;22.60;;;;;;;0.07;51.62;101378.66;4969186;28;20027;-71
2022/01/26 09:00:09;;;;;;;34.92;22.00;;;;;;;0.16;51.98;101384.34;4972198;28;20046;-70
2022/01/26 09:02:37;;;;;;;45.67;24.55;;;;;;;0.21;51.96;101384.56;4959105;28;20395;-70
2022/01/26 09:05:08;;;;;;;40.53;21.40;;;;;;;-0.09;51.59;101389.75;4968801;28;20038;-69
2022/01/26 09:07:33;;;;;;;45.00;24.98;;;;;;;0.00;51.78;101381.69;4970209;28;20039;-69
2022/01/26 09:10:01;;;;;;;38.83;24.13;;;;;;;0.02;52.33;101392.06;4966632;28;20185;-70
2022/01/26 09:12:28;;;;;;;52.65;26.75;;;;;;;0.05;52.13;101371.59;4969726;28;20023;-71
2022/01/26 09:14:54;;;;;;;36.50;22.98;;;;;;;-0.16;52.35;101381.59;4972831;28;20041;-70
2022/01/26 09:17:20;;;;;;;34.60;22.42;;;;;;;-0.08;53.39;101367.44;4973395;28;20047;-70
2022/01/26 09:19:47;;;;;;;33.70;21.95;;;;;;;0.39;52.07;101369.25;4969623;28;20125;-70
2022/01/26 09:22:15;;;;;;;38.90;25.25;;;;;;;0.56;51.37;101371.09;5001130;28;20038;-69
2022/01/26 09:24:42;;;;;;;43.25;28.20;;;;;;;0.35;51.39;101346.66;4970664;28;20026;-70
2022/01/26 09:27:10;;;;;;;47.40;29.13;;;;;;;0.35;51.53;101377.63;4970171;28;20039;-70
2022/01/26 09:29:36;;;;;;;33.63;22.60;;;;;;;0.10;51.62;101381.41;4968700;28;20043;-70
2022/01/26 09:32:03;;;;;;;39.95;25.52;;;;;;;0.27;51.91;101363.41;4969537;28;20054;-71
2022/01/26 09:34:30;;;;;;;49.33;29.95;;;;;;;0.30;51.62;101355.81;4966499;28;20066;-71
2022/01/26 09:36:56;;;;;;;59.35;29.67;;;;;;;0.66;51.77;101369.03;4969289;28;20528;-71
2022/01/26 09:39:42;;;;;;;39.17;26.70;;;;;;;0.99;51.05;101362.22;4971194;28;20031;-70
2022/01/26 09:42:28;;;;;;;37.13;24.63;;;;;;;0.55;51.07;101363.25;4968280;28;20074;-70
2022/01/26 09:44:53;;;;;;;52.50;30.95;;;;;;;0.95;50.63;101363.75;4950691;28;20047;-71
2022/01/26 09:47:21;;;;;;;47.15;30.60;;;;;;;1.07;49.99;101365.22;4969285;28;20050;-71
2022/01/26 09:49:49;;;;;;;52.25;28.88;;;;;;;1.07;49.94;101342.84;4969395;28;20051;-70
2022/01/26 09:52:29;;;;;;;42.95;25.00;;;;;;;1.47;49.10;101352.69;4971279;28;20049;-70
2022/01/26 09:55:01;;;;;;;45.33;26.15;;;;;;;1.29;48.96;101341.38;4969648;28;20065;-70
2022/01/26 09:57:28;;;;;;;43.15;29.42;;;;;;;1.48;48.78;101346.72;4969127;28;20359;-71
2022/01/26 09:59:54;;;;;;;44.92;25.77;;;;;;;1.34;48.75;101320.16;4982985;28;20044;-70
2022/01/26 10:02:28;;;;;;;46.38;27.75;;;;;;;1.55;48.35;101346.22;4976430;28;20034;-70
2022/01/26 10:05:10;;;;;;;42.72;27.17;;;;;;;1.80;47.67;101324.19;4968217;28;20053;-70
2022/01/26 10:08:11;;;;;;;48.85;29.50;;;;;;;1.73;48.14;101335.03;4969471;28;20138;-70
2022/01/26 10:18:56;;;;;;;34.55;26.27;;;;;;;1.43;46.94;101306.81;4977210;28;20054;-70
2022/01/26 10:21:23;;;;;;;44.67;23.45;;;;;;;1.57;46.38;101304.91;4970726;28;20039;-68
2022/01/26 10:23:49;;;;;;;36.58;24.42;;;;;;;1.69;45.96;101331.41;4969708;28;20078;-70
2022/01/26 10:26:19;;;;;;;43.30;26.08;;;;;;;1.90;46.30;101329.91;4968428;28;20050;-70
2022/01/26 10:29:04;;;;;;;32.92;22.88;;;;;;;1.83;45.66;101333.00;4978158;28;20193;-69
2022/01/26 10:31:31;;;;;;;30.58;20.73;;;;;;;1.67;46.16;101323.56;4952742;28;20043;-70
2022/01/26 10:33:58;;;;;;;36.08;25.75;;;;;;;1.96;45.80;101303.44;4967917;28;20066;-70
2022/01/26 10:36:40;;;;;;;41.08;27.33;;;;;;;1.97;46.69;101317.28;4972841;28;20497;-71
2022/01/26 10:39:30;;;;;;;47.88;27.10;;;;;;;2.13;46.24;101312.03;4950523;28;20067;-69
2022/01/26 10:42:01;;;;;;;51.35;27.20;;;;;;;1.79;46.61;101322.41;4961882;28;20125;-70
2022/01/26 10:44:51;;;;;;;42.55;28.88;;;;;;;1.97;46.30;101306.94;4961014;28;20047;-72
2022/01/26 10:47:34;;;;;;;53.25;30.02;;;;;;;1.80;46.92;101287.97;4953082;28;20526;-70
2022/01/26 10:52:54;;;;;;;43.10;25.52;;;;;;;2.14;46.35;101295.69;4963822;28;20070;-69
2022/01/26 10:55:20;;;;;;;39.55;27.80;;;;;;;1.64;46.82;101283.75;4964036;28;20542;-70
2022/01/26 10:57:46;;;;;;;42.03;29.30;;;;;;;1.96;46.52;101287.03;4973161;28;20477;-70
2022/01/26 11:00:12;;;;;;;36.63;26.30;;;;;;;1.95;46.83;101300.78;4963660;28;20054;-70
2022/01/26 11:02:48;;;;;;;43.83;29.90;;;;;;;1.84;47.15;101288.19;4972273;28;20051;-70
2022/01/26 11:05:13;;;;;;;43.50;26.38;;;;;;;1.86;46.97;101306.38;4978643;28;20129;-71
2022/01/26 11:07:42;;;;;;;37.17;26.25;;;;;;;1.99;47.79;101293.25;4971680;28;20495;-71
2022/01/26 11:10:09;;;;;;;43.47;28.13;;;;;;;2.15;47.57;101292.25;4964883;28;20122;-70
2022/01/26 11:12:38;;;;;;;35.47;26.10;;;;;;;2.49;47.39;101286.09;4968490;28;20030;-70
2022/01/26 11:15:16;;;;;;;41.28;25.35;;;;;;;2.40;47.00;101270.13;4956626;28;20047;-71
2022/01/26 11:17:45;;;;;;;36.55;23.73;;;;;;;2.40;46.30;101260.66;4959839;28;20084;-71
2022/01/26 11:20:20;;;;;;;51.10;26.17;;;;;;;2.44;46.46;101272.94;4971266;28;20051;-70
2022/01/26 11:22:50;;;;;;;37.30;26.63;;;;;;;2.48;46.39;101268.78;4971805;28;20258;-70
2022/01/26 11:25:16;;;;;;;43.92;26.15;;;;;;;2.71;46.11;101267.25;4979593;28;20043;-70
2022/01/26 11:27:42;;;;;;;38.88;27.08;;;;;;;2.53;46.67;101264.72;4973529;28;20035;-69
2022/01/26 11:30:20;;;;;;;35.33;25.52;;;;;;;2.61;46.58;101271.13;4970961;28;20051;-69
2022/01/26 11:33:03;;;;;;;41.83;26.33;;;;;;;2.72;46.11;101282.00;4971085;28;20125;-69
2022/01/26 11:35:35;;;;;;;42.00;27.38;;;;;;;2.88;46.09;101279.28;4970973;28;20061;-70
2022/01/26 11:38:28;;;;;;;42.08;28.73;;;;;;;2.70;45.56;101274.13;4972133;28;20039;-70
2022/01/26 11:50:06;;;;;;;41.20;25.33;;;;;;;2.69;46.73;101264.59;4955978;28;20061;-71
2022/01/26 11:52:38;;;;;;;32.25;23.85;;;;;;;2.87;46.80;101255.88;4971045;28;20047;-71
2022/01/26 11:55:32;;;;;;;35.33;24.10;;;;;;;2.63;46.05;101264.31;4974216;28;20031;-69
2022/01/26 11:58:10;;;;;;;35.25;22.35;;;;;;;2.49;46.23;101257.63;4975681;28;20352;-69
2022/01/26 12:03:19;;;;;;;33.50;24.48;;;;;;;2.77;46.83;101261.47;4969308;28;20050;-70
2022/01/26 12:05:46;;;;;;;34.65;24.00;;;;;;;2.32;46.57;101246.47;4971228;28;20367;-71
2022/01/26 12:08:12;;;;;;;32.67;25.05;;;;;;;2.29;47.29;101251.50;4973535;28;20070;-71
2022/01/26 12:10:38;;;;;;;42.72;23.77;;;;;;;2.67;47.17;101260.16;4974683;28;20153;-70
2022/01/26 12:13:07;;;;;;;39.25;22.67;;;;;;;2.73;46.67;101248.34;4971981;28;20046;-71
2022/01/26 12:15:48;;;;;;;38.55;23.63;;;;;;;2.56;46.86;101240.66;4975073;28;20034;-70
2022/01/26 12:18:40;;;;;;;37.83;23.75;;;;;;;2.68;46.94;101228.25;4982262;28;20042;-70
2022/01/26 12:35:31;;;;;;;40.83;24.85;;;;;;;2.65;46.86;101216.06;4981552;28;20042;-70
2022/01/26 12:43:12;;;;;;;34.38;20.83;;;;;;;3.08;46.62;101224.81;4971327;28;20458;-69
2022/01/26 12:45:38;;;;;;;28.65;22.15;;;;;;;2.50;47.36;101218.81;4971631;28;20034;-70
2022/01/26 12:48:08;;;;;;;36.40;23.73;;;;;;;2.64;47.00;101226.34;4982751;28;20166;-70
2022/01/26 12:50:33;;;;;;;32.72;21.65;;;;;;;2.74;46.95;101233.72;4971131;28;20475;-70
2022/01/26 12:52:59;;;;;;;26.48;19.83;;;;;;;2.57;46.80;101213.91;4973954;28;20055;-69
2022/01/26 12:55:32;;;;;;;32.28;23.50;;;;;;;2.43;47.39;101224.53;4971435;28;20046;-71
2022/01/26 12:57:57;;;;;;;29.40;21.30;;;;;;;2.35;47.68;101220.72;4952202;28;20046;-69
2022/01/26 13:00:30;;;;;;;35.65;21.75;;;;;;;2.53;47.55;101220.69;4965386;28;20019;-71
2022/01/26 13:02:56;;;;;;;35.22;21.27;;;;;;;2.61;47.38;101237.44;4977631;28;20061;-71
2022/01/26 13:05:24;;;;;;;34.15;19.23;;;;;;;2.72;47.56;101223.28;4973692;28;21048;-70
2022/01/26 13:08:03;;;;;;;36.35;23.75;;;;;;;2.90;47.33;101224.91;4964097;28;20047;-71
2022/01/26 13:10:30;;;;;;;39.10;20.60;;;;;;;2.80;47.88;101235.69;4975322;28;20054;-70
2022/01/26 13:13:19;;;;;;;35.13;21.10;;;;;;;2.76;48.41;101239.84;4982198;28;20391;-72
2022/01/26 13:15:54;;;;;;;32.40;22.38;;;;;;;2.95;47.08;101229.50;4969969;28;20062;-69
2022/01/26 13:18:46;;;;;;;33.65;23.17;;;;;;;2.82;47.93;101239.25;4968229;28;20134;-70
2022/01/26 13:24:25;;;;;;;33.55;21.45;;;;;;;2.92;46.76;101225.84;4970074;28;20051;-70
2022/01/26 13:27:00;;;;;;;39.25;22.25;;;;;;;2.59;46.96;101220.06;4950841;28;20118;-70
2022/01/26 13:29:39;;;;;;;31.77;21.55;;;;;;;2.90;46.76;101233.59;4971188;28;20050;-70
2022/01/26 13:54:55;;;;;;;73.45;45.05;;;;;;;3.14;46.31;101230.28;4972653;28;20037;-69
2022/01/26 14:00:17;;;;;;;33.05;25.08;;;;;;;3.08;46.61;101241.25;4977512;28;20158;-69
2022/01/26 14:02:42;;;;;;;62.78;34.17;;;;;;;3.11;46.68;101236.25;4969945;28;20493;-70
2022/01/26 14:05:10;;;;;;;47.95;31.02;;;;;;;3.12;46.45;101235.41;4970968;28;20057;-70
2022/01/26 14:07:35;;;;;;;55.05;28.15;;;;;;;3.06;46.65;101224.75;4970438;28;20051;-70
2022/01/26 14:10:02;;;;;;;38.33;24.73;;;;;;;3.07;46.44;101220.47;4961741;28;20045;-69
2022/01/26 14:12:32;;;;;;;31.25;23.17;;;;;;;3.12;46.60;101239.72;4975198;28;20057;-71
2022/01/26 14:14:59;;;;;;;33.67;22.75;;;;;;;2.92;47.09;101229.31;4968200;28;20125;-71
2022/01/26 14:27:53;;;;;;;27.67;21.90;;;;;;;3.00;46.49;101216.72;4969582;28;20079;-69
2022/01/26 15:34:42;;;;;;;40.47;24.20;;;;;;;3.17;47.38;101254.63;4960542;28;20371;-71
2022/01/26 15:40:07;;;;;;;36.22;25.85;;;;;;;3.12;47.83;101283.78;4966072;28;20517;-70
2022/01/26 15:42:55;;;;;;;39.75;22.02;;;;;;;3.29;48.08;101288.00;4963547;28;20046;-71
2022/01/26 15:59:06;;;;;;;56.33;32.70;;;;;;;2.86;48.80;101296.47;4957360;28;20054;-71
2022/01/26 16:07:11;;;;;;;57.42;33.40;;;;;;;2.91;49.04;101294.97;4962702;28;20067;-70
2022/01/26 17:34:26;;;;;;;54.75;32.05;;;;;;;2.16;52.48;101332.88;5041998;28;20048;-71